Time;durP1;ratioP1;P1;durP2;ratioP2;P2;SDS_P1;SDS_P2;PMS_P1;PMS_P2;Temp;Humidity;BMP_temperature;BMP_pressure;BME280_temperature;BME280_humidity;BME280_pressure;Samples;Min_cycle;Max_cycle;Signal;HPM_P1;HPM_P2
2022/03/01 00:01:42;;;;;;;14.13;11.07;;;3.10;99.90;;;;;;5052403;28;20056;-81
2022/03/01 00:04:08;;;;;;;13.95;10.73;;;3.10;99.90;;;;;;5050066;28;20040;-82
2022/03/01 00:06:34;;;;;;;14.48;10.82;;;3.10;99.90;;;;;;5045313;28;20328;-81
2022/03/01 00:09:00;;;;;;;16.33;11.93;;;3.00;99.90;;;;;;5055145;28;20084;-82
2022/03/01 00:11:26;;;;;;;13.48;11.48;;;3.00;99.90;;;;;;5040350;28;20073;-82
2022/03/01 00:13:51;;;;;;;14.93;11.77;;;3.10;99.90;;;;;;5050704;28;20049;-81
2022/03/01 00:16:17;;;;;;;13.57;11.35;;;3.00;99.90;;;;;;5038956;28;20060;-82
2022/03/01 00:18:44;;;;;;;15.68;11.55;;;3.10;99.90;;;;;;5054058;28;20056;-82
2022/03/01 00:21:10;;;;;;;16.05;11.15;;;3.00;99.90;;;;;;5053540;28;20049;-82
2022/03/01 00:23:35;;;;;;;15.15;10.70;;;3.00;99.90;;;;;;5055044;28;20132;-81
2022/03/01 00:26:01;;;;;;;15.00;11.77;;;3.00;99.90;;;;;;5055544;28;20045;-81
2022/03/01 00:28:27;;;;;;;14.23;10.90;;;3.00;99.90;;;;;;5053735;28;20045;-81
2022/03/01 00:30:52;;;;;;;13.90;10.68;;;3.00;99.90;;;;;;5053998;28;20362;-81
2022/03/01 00:33:18;;;;;;;15.40;11.70;;;3.00;99.90;;;;;;5053682;28;20087;-83
2022/03/01 00:35:44;;;;;;;15.23;11.95;;;3.00;99.90;;;;;;5055201;28;20124;-82
2022/03/01 00:38:09;;;;;;;15.30;11.60;;;3.00;99.90;;;;;;5054135;28;20045;-82
2022/03/01 00:40:35;;;;;;;15.45;10.73;;;2.90;99.90;;;;;;5054015;28;20033;-82
2022/03/01 00:43:00;;;;;;;14.45;11.13;;;2.90;99.90;;;;;;5055274;28;20123;-83
2022/03/01 00:45:26;;;;;;;15.23;11.77;;;3.00;99.90;;;;;;5066875;28;20043;-82
2022/03/01 00:47:52;;;;;;;15.20;11.82;;;2.90;99.90;;;;;;5076107;28;20053;-82
2022/03/01 00:50:17;;;;;;;15.73;11.52;;;3.00;99.90;;;;;;5064722;28;20098;-82
2022/03/01 00:52:43;;;;;;;13.63;11.00;;;3.00;99.90;;;;;;5076198;28;20037;-83
2022/03/01 00:55:09;;;;;;;15.18;11.32;;;3.00;99.90;;;;;;5067588;28;20056;-82
2022/03/01 00:57:34;;;;;;;13.85;11.45;;;3.00;99.90;;;;;;5076196;28;20023;-82
2022/03/01 01:00:00;;;;;;;16.15;11.82;;;3.00;99.90;;;;;;5064468;28;20041;-80
2022/03/01 01:02:26;;;;;;;16.00;11.52;;;3.00;99.90;;;;;;5044170;28;20041;-82
2022/03/01 01:04:51;;;;;;;15.48;11.30;;;3.00;99.90;;;;;;5047273;28;20041;-82
2022/03/01 01:07:17;;;;;;;14.77;11.45;;;3.00;99.90;;;;;;5040273;28;20051;-82
2022/03/01 01:09:43;;;;;;;13.55;11.20;;;3.00;99.90;;;;;;5050228;28;20049;-82
2022/03/01 01:12:09;;;;;;;16.20;12.15;;;3.00;99.90;;;;;;5041072;28;20099;-81
2022/03/01 01:14:35;;;;;;;14.85;11.77;;;3.00;99.90;;;;;;5036080;28;20036;-81
2022/03/01 01:17:00;;;;;;;14.95;11.43;;;3.00;99.90;;;;;;5042161;28;20056;-82
2022/03/01 01:19:26;;;;;;;16.45;11.85;;;3.00;99.90;;;;;;5044141;28;20044;-82
2022/03/01 01:24:37;;;;;;;13.85;11.00;;;3.00;99.90;;;;;;5032929;28;20053;-81
2022/03/01 01:27:05;;;;;;;16.00;10.98;;;3.00;99.90;;;;;;5034511;28;20503;-82
2022/03/01 01:29:31;;;;;;;12.93;10.95;;;2.90;99.90;;;;;;5032645;28;20133;-81
2022/03/01 01:31:57;;;;;;;15.00;11.73;;;2.90;99.90;;;;;;5032802;28;20077;-81
2022/03/01 01:34:22;;;;;;;14.50;11.75;;;2.90;99.90;;;;;;5033131;28;20042;-81
2022/03/01 01:36:48;;;;;;;15.30;11.80;;;2.90;99.90;;;;;;5032759;28;20088;-81
2022/03/01 01:39:13;;;;;;;15.40;11.60;;;2.90;99.90;;;;;;5034150;28;20045;-81
2022/03/01 01:41:39;;;;;;;16.42;11.82;;;2.90;99.90;;;;;;5032705;28;20460;-81
2022/03/01 01:44:06;;;;;;;13.82;11.90;;;2.80;99.90;;;;;;5034064;28;20049;-82
2022/03/01 01:46:31;;;;;;;14.65;12.00;;;2.80;99.90;;;;;;5033719;28;20128;-81
2022/03/01 01:48:57;;;;;;;17.60;11.25;;;2.80;99.90;;;;;;5032687;28;20152;-80
2022/03/01 01:51:24;;;;;;;15.18;11.57;;;2.80;99.90;;;;;;5033830;28;20094;-81
2022/03/01 01:53:50;;;;;;;14.35;11.30;;;2.80;99.90;;;;;;5032547;28;20089;-81
2022/03/01 01:56:16;;;;;;;16.55;11.48;;;2.70;99.90;;;;;;5032497;28;20088;-81
2022/03/01 01:58:42;;;;;;;16.48;11.82;;;2.70;99.90;;;;;;5032091;28;20060;-81
2022/03/01 02:01:08;;;;;;;15.38;11.88;;;2.80;99.90;;;;;;5033587;28;20091;-81
2022/03/01 02:03:35;;;;;;;17.60;11.77;;;2.70;99.90;;;;;;5033167;28;20103;-81
2022/03/01 02:06:01;;;;;;;15.55;12.13;;;2.70;99.90;;;;;;5033544;28;20128;-81
2022/03/01 02:08:30;;;;;;;15.27;11.75;;;2.70;99.90;;;;;;5032291;28;20094;-81
2022/03/01 02:10:57;;;;;;;15.13;11.30;;;2.70;99.90;;;;;;5015867;28;20383;-81
2022/03/01 02:13:22;;;;;;;13.68;11.70;;;2.70;99.90;;;;;;5032356;28;20399;-81
2022/03/01 02:15:48;;;;;;;13.30;10.88;;;2.70;99.90;;;;;;5031737;28;20080;-81
2022/03/01 02:18:15;;;;;;;14.23;12.05;;;2.70;99.90;;;;;;5016227;28;20057;-81
2022/03/01 02:20:40;;;;;;;16.65;12.57;;;2.70;99.90;;;;;;5027555;28;20101;-82
2022/03/01 02:23:06;;;;;;;19.17;11.70;;;2.70;99.90;;;;;;5054487;28;20046;-82
2022/03/01 02:25:32;;;;;;;17.10;12.13;;;2.70;99.90;;;;;;5049897;28;20050;-82
2022/03/01 02:27:57;;;;;;;16.33;12.10;;;2.70;99.90;;;;;;5057542;28;20084;-82
2022/03/01 02:30:23;;;;;;;18.08;11.57;;;2.80;99.90;;;;;;5057675;28;20053;-82
2022/03/01 02:32:48;;;;;;;14.27;11.35;;;2.70;99.90;;;;;;5056932;28;20026;-82
2022/03/01 02:35:14;;;;;;;15.50;11.32;;;2.70;99.90;;;;;;5022059;28;20375;-81
2022/03/01 02:37:40;;;;;;;15.68;11.95;;;2.80;99.90;;;;;;5031657;28;20048;-81
2022/03/01 02:40:07;;;;;;;14.38;11.85;;;2.90;99.90;;;;;;5015600;28;20088;-81
2022/03/01 02:42:32;;;;;;;16.00;11.85;;;2.80;99.90;;;;;;5032957;28;20456;-81
2022/03/01 02:44:58;;;;;;;16.25;12.30;;;2.90;99.90;;;;;;5032989;28;20049;-81
2022/03/01 02:47:24;;;;;;;17.50;12.25;;;2.80;99.90;;;;;;5033067;28;20060;-81
2022/03/01 02:49:50;;;;;;;16.60;12.23;;;2.80;99.90;;;;;;5032636;28;20470;-81
2022/03/01 02:52:15;;;;;;;16.75;12.02;;;2.90;99.90;;;;;;5031815;28;20103;-81
2022/03/01 02:54:41;;;;;;;15.48;12.13;;;2.90;99.90;;;;;;5031036;28;20076;-81
2022/03/01 02:57:06;;;;;;;15.52;12.38;;;2.90;99.90;;;;;;5032930;28;20046;-82
2022/03/01 02:59:32;;;;;;;14.10;11.70;;;2.90;99.90;;;;;;5032890;28;20385;-81
2022/03/01 03:01:58;;;;;;;13.85;11.38;;;2.90;99.90;;;;;;5015126;28;20111;-81
2022/03/01 03:04:24;;;;;;;14.80;11.50;;;2.90;99.90;;;;;;5035410;28;20041;-81
2022/03/01 03:06:50;;;;;;;16.58;12.35;;;2.80;99.90;;;;;;5036778;28;20490;-81
2022/03/01 03:09:15;;;;;;;15.32;12.13;;;2.90;99.90;;;;;;5003075;28;20041;-81
2022/03/01 03:11:41;;;;;;;16.35;11.77;;;2.90;99.90;;;;;;5036705;28;20397;-81
2022/03/01 03:14:07;;;;;;;16.67;12.43;;;2.90;99.90;;;;;;5037317;28;20045;-81
2022/03/01 03:16:32;;;;;;;15.15;12.10;;;2.90;99.90;;;;;;5038936;28;20059;-81
2022/03/01 03:18:58;;;;;;;19.33;12.57;;;2.90;99.90;;;;;;5055763;28;20049;-81
2022/03/01 03:21:23;;;;;;;16.30;11.77;;;2.90;99.90;;;;;;5027694;28;20041;-82
2022/03/01 03:23:49;;;;;;;16.67;12.18;;;3.00;99.90;;;;;;5056444;28;20485;-81
2022/03/01 03:26:15;;;;;;;15.80;12.15;;;2.90;99.90;;;;;;5057006;28;20075;-81
2022/03/01 03:28:41;;;;;;;16.77;12.25;;;3.00;99.90;;;;;;5019396;28;20065;-82
2022/03/01 03:31:06;;;;;;;16.00;11.75;;;3.00;99.90;;;;;;5050148;28;20472;-81
2022/03/01 03:33:32;;;;;;;16.98;12.18;;;3.00;99.90;;;;;;5043471;28;20102;-81
2022/03/01 03:35:58;;;;;;;16.88;12.23;;;3.00;99.90;;;;;;5050710;28;20204;-81
2022/03/01 03:38:24;;;;;;;20.60;12.13;;;3.00;99.90;;;;;;5045226;28;20045;-81
2022/03/01 03:40:50;;;;;;;15.60;13.18;;;3.00;99.90;;;;;;5042358;28;20056;-81
2022/03/01 03:43:16;;;;;;;15.65;11.57;;;3.10;99.90;;;;;;5018100;28;20393;-81
2022/03/01 03:45:41;;;;;;;13.85;12.10;;;3.00;99.90;;;;;;5035202;28;20045;-81
2022/03/01 03:48:07;;;;;;;15.27;12.18;;;3.00;99.90;;;;;;5034888;28;20461;-81
2022/03/01 03:50:33;;;;;;;17.60;12.65;;;3.00;99.90;;;;;;5055618;28;20048;-81
2022/03/01 03:52:59;;;;;;;17.48;12.80;;;3.00;99.90;;;;;;5053943;28;20041;-82
2022/03/01 03:55:24;;;;;;;14.77;11.93;;;3.10;99.90;;;;;;5056132;28;20033;-82
2022/03/01 03:57:50;;;;;;;16.38;11.73;;;3.20;99.90;;;;;;5059850;28;20052;-83
2022/03/01 04:00:17;;;;;;;15.88;12.43;;;3.10;99.90;;;;;;5050587;28;20481;-81
2022/03/01 04:02:44;;;;;;;15.57;12.27;;;3.10;99.90;;;;;;5035802;28;20049;-81
2022/03/01 04:05:12;;;;;;;17.60;12.75;;;3.20;99.90;;;;;;5018575;28;20053;-81
2022/03/01 04:07:42;;;;;;;15.73;11.50;;;3.10;99.90;;;;;;5035987;28;20085;-81
2022/03/01 04:10:08;;;;;;;16.45;12.98;;;3.20;99.90;;;;;;5018284;28;20085;-81
2022/03/01 04:12:34;;;;;;;15.68;12.00;;;3.10;99.90;;;;;;5034552;28;20103;-81
2022/03/01 04:15:00;;;;;;;17.35;12.43;;;3.10;99.90;;;;;;5032853;28;20049;-81
2022/03/01 04:17:26;;;;;;;16.75;11.85;;;3.10;99.90;;;;;;5047754;28;20075;-81
2022/03/01 04:19:52;;;;;;;16.42;12.80;;;3.10;99.90;;;;;;5028394;28;20052;-81
2022/03/01 04:22:18;;;;;;;15.95;12.13;;;3.10;99.90;;;;;;5051568;28;20049;-81
2022/03/01 04:24:44;;;;;;;20.63;12.65;;;3.20;99.90;;;;;;5038954;28;20071;-83
2022/03/01 04:27:09;;;;;;;16.42;11.35;;;3.20;99.90;;;;;;5053833;28;20051;-82
2022/03/01 04:29:35;;;;;;;16.25;12.63;;;3.20;99.90;;;;;;5041583;28;20045;-82
2022/03/01 04:32:01;;;;;;;17.17;12.77;;;3.10;99.90;;;;;;5050320;28;20136;-82
2022/03/01 04:34:27;;;;;;;14.55;12.43;;;3.10;99.90;;;;;;5041822;28;20144;-82
2022/03/01 04:36:53;;;;;;;16.77;12.70;;;3.10;99.90;;;;;;5046836;28;20124;-83
2022/03/01 04:39:19;;;;;;;15.73;12.70;;;3.00;99.90;;;;;;5043624;28;20048;-82
2022/03/01 04:41:45;;;;;;;15.38;12.15;;;3.10;99.90;;;;;;5041083;28;20485;-82
2022/03/01 04:44:10;;;;;;;14.80;12.43;;;3.00;99.90;;;;;;5051111;28;20052;-82
2022/03/01 04:46:36;;;;;;;16.50;12.25;;;3.00;99.90;;;;;;5045951;28;20037;-82
2022/03/01 04:49:03;;;;;;;16.42;12.40;;;3.00;99.90;;;;;;5052719;28;20056;-83
2022/03/01 04:51:29;;;;;;;18.02;12.57;;;3.00;99.90;;;;;;5037503;28;20052;-83
2022/03/01 04:53:55;;;;;;;18.13;12.48;;;3.10;99.90;;;;;;5036982;28;20393;-83
2022/03/01 04:56:21;;;;;;;15.82;12.35;;;3.10;99.90;;;;;;5053615;28;20047;-82
2022/03/01 04:58:46;;;;;;;18.02;12.75;;;3.20;99.90;;;;;;5053695;28;20045;-82
2022/03/01 05:01:12;;;;;;;16.13;12.63;;;3.10;99.90;;;;;;5036754;28;20053;-81
2022/03/01 05:03:37;;;;;;;17.20;13.30;;;3.20;99.90;;;;;;5053827;28;20080;-82
2022/03/01 05:06:03;;;;;;;15.65;12.68;;;3.20;99.90;;;;;;5053057;28;20044;-82
2022/03/01 05:08:30;;;;;;;18.17;12.95;;;3.20;99.90;;;;;;5053356;28;20041;-82
2022/03/01 05:10:59;;;;;;;17.38;13.40;;;3.20;99.90;;;;;;5053039;28;20052;-82
2022/03/01 05:13:25;;;;;;;16.85;12.30;;;3.20;99.90;;;;;;5055213;28;20053;-82
2022/03/01 05:15:51;;;;;;;18.52;13.00;;;3.20;99.90;;;;;;5074856;28;20245;-82
2022/03/01 05:18:17;;;;;;;17.40;12.60;;;3.20;99.90;;;;;;5056337;28;20057;-82
2022/03/01 05:20:42;;;;;;;16.58;12.98;;;3.20;99.90;;;;;;5061365;28;20047;-82
2022/03/01 05:23:08;;;;;;;19.60;13.68;;;3.30;99.90;;;;;;5078298;28;20031;-82
2022/03/01 05:25:34;;;;;;;17.02;12.25;;;3.20;99.90;;;;;;5078200;28;20030;-82
2022/03/01 05:27:59;;;;;;;19.75;13.25;;;3.20;99.90;;;;;;5067725;28;20041;-82
2022/03/01 05:30:26;;;;;;;16.33;12.68;;;3.30;99.90;;;;;;5052888;28;20090;-81
2022/03/01 05:32:52;;;;;;;17.58;13.57;;;3.30;99.90;;;;;;5052845;28;20051;-82
2022/03/01 05:35:23;;;;;;;15.75;12.60;;;3.30;99.90;;;;;;5054027;28;20041;-82
2022/03/01 05:37:49;;;;;;;15.98;13.15;;;3.20;99.90;;;;;;5054174;28;20455;-81
2022/03/01 05:40:15;;;;;;;18.92;13.63;;;3.30;99.90;;;;;;5053532;28;20056;-82
2022/03/01 05:42:41;;;;;;;16.58;12.82;;;3.30;99.90;;;;;;5054170;28;20094;-81
2022/03/01 05:45:07;;;;;;;16.45;13.18;;;3.20;99.90;;;;;;5053522;28;20045;-82
2022/03/01 05:47:32;;;;;;;17.10;12.57;;;3.20;99.90;;;;;;5052736;28;20049;-84
2022/03/01 05:49:58;;;;;;;16.80;13.65;;;3.20;99.90;;;;;;5053460;28;20037;-84
2022/03/01 05:52:24;;;;;;;20.33;12.88;;;3.20;99.90;;;;;;5052545;28;20048;-84
2022/03/01 05:54:50;;;;;;;16.95;13.10;;;3.20;99.90;;;;;;5019804;28;20044;-83
2022/03/01 05:57:15;;;;;;;17.17;13.25;;;3.20;99.90;;;;;;5052172;28;20049;-84
2022/03/01 05:59:41;;;;;;;19.27;13.45;;;3.20;99.90;;;;;;5052449;28;20045;-84
2022/03/01 06:02:07;;;;;;;16.65;13.05;;;3.20;99.90;;;;;;5035412;28;20131;-82
2022/03/01 06:04:32;;;;;;;18.00;13.60;;;3.20;99.90;;;;;;5052501;28;20048;-82
2022/03/01 06:06:58;;;;;;;17.25;13.55;;;3.20;99.90;;;;;;5053085;28;20449;-83
2022/03/01 06:09:24;;;;;;;17.42;13.45;;;3.20;99.90;;;;;;5052109;28;20440;-82
2022/03/01 06:11:49;;;;;;;19.25;13.07;;;3.20;99.90;;;;;;5051992;28;20044;-82
2022/03/01 06:14:16;;;;;;;15.73;13.48;;;3.20;99.90;;;;;;5053065;28;20049;-83
2022/03/01 06:16:43;;;;;;;17.35;14.13;;;3.20;99.90;;;;;;5052012;28;20100;-82
2022/03/01 06:19:08;;;;;;;16.83;12.90;;;3.20;99.90;;;;;;5035558;28;20036;-82
2022/03/01 06:21:34;;;;;;;18.65;14.02;;;3.30;99.90;;;;;;5052019;28;20087;-82
2022/03/01 06:24:00;;;;;;;18.55;13.43;;;3.30;99.90;;;;;;5035197;28;20110;-83
2022/03/01 06:26:26;;;;;;;17.08;13.68;;;3.20;99.90;;;;;;5019019;28;20477;-82
2022/03/01 06:28:51;;;;;;;16.75;13.13;;;3.30;99.90;;;;;;5052138;28;20064;-82
2022/03/01 06:31:17;;;;;;;18.30;13.68;;;3.20;99.90;;;;;;5018760;28;20136;-82
2022/03/01 06:33:43;;;;;;;17.40;13.15;;;3.30;99.90;;;;;;5052055;28;20056;-82
2022/03/01 06:36:08;;;;;;;15.10;12.40;;;3.20;99.90;;;;;;5035497;28;20048;-82
2022/03/01 06:38:34;;;;;;;20.80;13.73;;;3.20;99.90;;;;;;5061023;28;20024;-82
2022/03/01 06:40:59;;;;;;;20.15;13.85;;;3.20;99.90;;;;;;5076233;28;20047;-82
2022/03/01 06:43:25;;;;;;;18.60;13.50;;;3.30;99.90;;;;;;5072096;28;20041;-81
2022/03/01 06:45:51;;;;;;;17.65;13.50;;;3.20;99.90;;;;;;5056568;28;20049;-82
2022/03/01 06:48:17;;;;;;;17.40;13.35;;;3.20;99.90;;;;;;5074946;28;20054;-84
2022/03/01 06:50:42;;;;;;;16.25;13.50;;;3.30;99.90;;;;;;5059184;28;20071;-82
2022/03/01 06:53:08;;;;;;;17.20;13.48;;;3.30;99.90;;;;;;5048415;28;20469;-82
2022/03/01 06:55:34;;;;;;;20.77;13.90;;;3.30;99.90;;;;;;5052259;28;20084;-81
2022/03/01 06:57:59;;;;;;;17.10;13.77;;;3.40;99.90;;;;;;5031441;28;20056;-81
2022/03/01 07:00:25;;;;;;;17.20;14.15;;;3.40;99.90;;;;;;5034788;28;20041;-81
2022/03/01 07:02:51;;;;;;;19.88;14.43;;;3.50;99.90;;;;;;5052587;28;20045;-81
2022/03/01 07:05:17;;;;;;;18.60;14.65;;;3.40;99.90;;;;;;5034419;28;20048;-82
2022/03/01 07:07:43;;;;;;;19.00;14.65;;;3.50;99.90;;;;;;5052523;28;20127;-82
2022/03/01 07:10:11;;;;;;;16.00;13.23;;;3.50;99.90;;;;;;5034280;28;20137;-82
2022/03/01 07:12:37;;;;;;;18.10;14.50;;;3.60;99.90;;;;;;5046968;28;20061;-82
2022/03/01 07:15:04;;;;;;;22.52;14.38;;;3.50;99.90;;;;;;5038735;28;20071;-83
2022/03/01 07:17:29;;;;;;;20.33;14.13;;;3.60;99.90;;;;;;5033879;28;20135;-83
2022/03/01 07:19:56;;;;;;;18.92;13.57;;;3.60;99.90;;;;;;5034510;28;20179;-82
2022/03/01 07:22:21;;;;;;;17.90;13.27;;;3.60;99.90;;;;;;5051261;28;20169;-82
2022/03/01 07:24:47;;;;;;;18.98;14.80;;;3.70;99.90;;;;;;5051557;28;20496;-83
2022/03/01 07:27:13;;;;;;;19.70;13.95;;;3.80;99.90;;;;;;5051403;28;20045;-83
2022/03/01 07:29:38;;;;;;;20.48;14.27;;;3.80;99.90;;;;;;5035056;28;20469;-83
2022/03/01 07:32:05;;;;;;;19.13;14.40;;;3.80;99.90;;;;;;5052604;28;20155;-82
2022/03/01 07:34:31;;;;;;;18.33;14.15;;;3.80;99.90;;;;;;5050960;28;20052;-83
2022/03/01 07:36:57;;;;;;;19.05;13.85;;;3.80;99.90;;;;;;5018453;28;20451;-83
2022/03/01 07:39:23;;;;;;;20.02;14.25;;;3.90;99.90;;;;;;5050995;28;20124;-82
2022/03/01 07:41:49;;;;;;;18.63;14.48;;;3.90;99.90;;;;;;5052577;28;20045;-82
2022/03/01 07:44:14;;;;;;;19.42;14.40;;;3.90;99.90;;;;;;5052153;28;20072;-83
2022/03/01 07:46:40;;;;;;;20.67;14.80;;;3.90;99.90;;;;;;5052535;28;20047;-82
2022/03/01 07:49:05;;;;;;;17.92;13.98;;;4.00;99.90;;;;;;5052780;28;20049;-83
2022/03/01 07:51:31;;;;;;;22.73;14.68;;;4.00;99.90;;;;;;5054594;28;20056;-82
2022/03/01 07:53:57;;;;;;;18.85;14.35;;;4.10;99.90;;;;;;5056563;28;20041;-81
2022/03/01 07:56:22;;;;;;;19.92;14.10;;;4.20;99.90;;;;;;5054441;28;20052;-82
2022/03/01 07:58:49;;;;;;;18.80;14.23;;;4.10;99.90;;;;;;5054851;28;20056;-81
2022/03/01 08:01:15;;;;;;;16.42;13.50;;;4.20;99.90;;;;;;5054297;28;20080;-82
2022/03/01 08:03:41;;;;;;;18.17;13.85;;;4.20;99.90;;;;;;5038360;28;20509;-82
2022/03/01 08:06:07;;;;;;;19.83;13.88;;;4.30;99.90;;;;;;5049837;28;20045;-83
2022/03/01 08:08:32;;;;;;;19.63;14.63;;;4.20;99.90;;;;;;5055277;28;20048;-82
2022/03/01 08:10:58;;;;;;;16.38;13.20;;;4.30;99.90;;;;;;5055236;28;20049;-82
2022/03/01 08:13:24;;;;;;;18.38;13.57;;;4.30;99.90;;;;;;5065349;28;20024;-84
2022/03/01 08:15:50;;;;;;;20.13;14.75;;;4.30;99.90;;;;;;5079669;28;20080;-83
2022/03/01 08:18:16;;;;;;;17.25;13.35;;;4.40;99.90;;;;;;5045177;28;20060;-83
2022/03/01 08:20:42;;;;;;;20.98;13.77;;;4.40;99.90;;;;;;5079018;28;20104;-84
2022/03/01 08:23:08;;;;;;;19.65;13.38;;;4.40;99.90;;;;;;5080303;28;20039;-83
2022/03/01 08:25:33;;;;;;;18.10;13.48;;;4.50;99.90;;;;;;5062901;28;20049;-84
2022/03/01 08:27:59;;;;;;;18.20;13.75;;;4.50;99.90;;;;;;5066242;28;20136;-83
2022/03/01 08:30:26;;;;;;;18.30;14.40;;;4.50;99.90;;;;;;5034470;28;20048;-83
2022/03/01 08:32:52;;;;;;;18.33;14.13;;;4.60;99.90;;;;;;5037628;28;20049;-84
2022/03/01 08:35:19;;;;;;;19.77;14.05;;;4.60;99.90;;;;;;5037535;28;20053;-83
2022/03/01 08:37:44;;;;;;;19.10;15.00;;;4.60;99.90;;;;;;5037736;28;20049;-83
2022/03/01 08:40:10;;;;;;;18.38;13.95;;;4.60;99.90;;;;;;5037504;28;20048;-83
2022/03/01 08:42:36;;;;;;;19.30;14.10;;;4.70;99.90;;;;;;5053226;28;20485;-83
2022/03/01 08:45:02;;;;;;;19.27;14.63;;;4.70;99.90;;;;;;5053869;28;20044;-83
2022/03/01 08:47:28;;;;;;;19.52;14.15;;;4.70;99.90;;;;;;5054813;28;20478;-85
2022/03/01 08:50:14;;;;;;;22.20;15.20;;;4.80;99.90;;;;;;5020916;28;20052;-84
2022/03/01 08:52:39;;;;;;;18.50;13.88;;;4.90;99.90;;;;;;5023110;28;20096;-83
2022/03/01 08:55:07;;;;;;;18.15;14.75;;;4.90;99.90;;;;;;5037392;28;20048;-85
2022/03/01 08:57:33;;;;;;;19.65;14.45;;;5.00;99.90;;;;;;5037046;28;20400;-89
2022/03/01 08:59:58;;;;;;;18.63;14.05;;;5.10;99.90;;;;;;5020720;28;20047;-81
2022/03/01 09:02:24;;;;;;;19.10;14.93;;;5.10;99.90;;;;;;5036827;28;20040;-83
2022/03/01 09:04:50;;;;;;;16.90;13.52;;;5.30;99.70;;;;;;5053711;28;20044;-82
2022/03/01 09:07:15;;;;;;;17.60;14.20;;;5.20;99.80;;;;;;5020833;28;20100;-83
2022/03/01 09:09:41;;;;;;;16.92;14.38;;;5.30;99.20;;;;;;5054292;28;20099;-83
2022/03/01 09:12:07;;;;;;;18.45;13.70;;;5.30;99.30;;;;;;5037073;28;20394;-81
2022/03/01 09:14:33;;;;;;;17.77;14.25;;;5.50;98.70;;;;;;5054503;28;20087;-82
2022/03/01 09:16:58;;;;;;;22.58;15.15;;;5.60;99.20;;;;;;5036612;28;20049;-82
2022/03/01 09:19:24;;;;;;;20.35;14.57;;;5.60;99.00;;;;;;5036346;28;20133;-83
2022/03/01 09:21:50;;;;;;;20.30;14.85;;;5.70;99.00;;;;;;5053558;28;20390;-82
2022/03/01 09:24:15;;;;;;;17.80;14.40;;;5.70;98.00;;;;;;5053260;28;20127;-82
2022/03/01 09:26:41;;;;;;;17.08;13.95;;;5.80;97.70;;;;;;5053041;28;20569;-82
2022/03/01 09:29:07;;;;;;;16.30;13.73;;;5.80;97.30;;;;;;5054255;28;20502;-81
2022/03/01 09:31:32;;;;;;;19.77;15.00;;;5.90;97.20;;;;;;5053653;28;20053;-83
2022/03/01 09:33:58;;;;;;;19.08;13.93;;;5.90;97.60;;;;;;5052998;28;20052;-83
2022/03/01 09:36:24;;;;;;;19.77;14.88;;;5.90;96.80;;;;;;5047774;28;20135;-86
2022/03/01 09:38:50;;;;;;;19.85;14.35;;;6.00;96.40;;;;;;5053493;28;20389;-83
2022/03/01 09:41:15;;;;;;;18.10;13.52;;;6.00;96.40;;;;;;5036263;28;20134;-83
2022/03/01 09:43:41;;;;;;;19.92;14.48;;;6.00;96.20;;;;;;5035947;28;20099;-84
2022/03/01 09:46:08;;;;;;;18.73;14.88;;;6.00;95.80;;;;;;5036332;28;20132;-83
2022/03/01 09:48:34;;;;;;;19.70;15.00;;;6.10;95.70;;;;;;5053704;28;20052;-84
2022/03/01 09:51:00;;;;;;;20.88;14.55;;;6.10;96.20;;;;;;5036235;28;20037;-85
2022/03/01 09:53:26;;;;;;;18.38;14.65;;;6.10;96.20;;;;;;5013045;28;20060;-85
2022/03/01 09:55:54;;;;;;;19.00;14.93;;;6.10;96.20;;;;;;5032995;28;20045;-85
2022/03/01 09:58:19;;;;;;;20.40;14.68;;;6.20;96.50;;;;;;5033278;28;20125;-85
2022/03/01 10:00:45;;;;;;;18.42;15.00;;;6.10;95.70;;;;;;5032514;28;20332;-85
2022/03/01 10:03:15;;;;;;;17.67;14.77;;;6.10;96.20;;;;;;5034788;28;20087;-84
2022/03/01 10:05:41;;;;;;;21.35;14.80;;;6.30;96.00;;;;;;5038529;28;20072;-85
2022/03/01 10:08:08;;;;;;;20.80;15.57;;;6.20;95.70;;;;;;5040007;28;20025;-85
2022/03/01 10:10:42;;;;;;;19.25;14.80;;;6.20;95.20;;;;;;5056010;28;20093;-85
2022/03/01 10:13:08;;;;;;;18.88;15.13;;;6.30;95.50;;;;;;5056759;28;20037;-85
2022/03/01 10:15:33;;;;;;;17.92;14.90;;;6.30;96.80;;;;;;5057031;28;20037;-85
2022/03/01 10:18:08;;;;;;;21.13;15.07;;;6.40;97.00;;;;;;5025010;28;20034;-85
2022/03/01 10:20:33;;;;;;;18.80;15.95;;;6.60;96.50;;;;;;5039094;28;20059;-85
2022/03/01 10:22:59;;;;;;;18.15;14.85;;;6.60;95.60;;;;;;5034147;28;20549;-85
2022/03/01 10:25:25;;;;;;;19.05;15.02;;;6.70;95.20;;;;;;5034696;28;20045;-84
2022/03/01 10:27:52;;;;;;;17.55;13.45;;;6.80;96.00;;;;;;5042920;28;20582;-82
2022/03/01 10:30:30;;;;;;;28.23;15.05;;;6.90;95.70;;;;;;5052625;28;20426;-85
2022/03/01 10:33:22;;;;;;;18.23;13.85;;;7.00;95.70;;;;;;5052008;28;20059;-85
2022/03/01 10:35:58;;;;;;;19.45;15.07;;;7.10;94.00;;;;;;5013122;28;20493;-85
2022/03/01 10:38:24;;;;;;;19.98;15.70;;;7.10;94.80;;;;;;5031924;28;20401;-85
2022/03/01 10:40:59;;;;;;;18.90;15.48;;;7.10;94.40;;;;;;5044125;28;20059;-86
2022/03/01 10:43:26;;;;;;;19.85;15.00;;;7.20;94.80;;;;;;5053069;28;20397;-85
2022/03/01 10:45:52;;;;;;;17.58;14.65;;;7.20;95.10;;;;;;5014949;28;20116;-85
2022/03/01 10:48:24;;;;;;;17.90;14.95;;;7.30;94.80;;;;;;5023188;28;20045;-84
2022/03/01 10:51:02;;;;;;;18.85;14.77;;;7.30;93.80;;;;;;5051138;28;20045;-83
2022/03/01 10:53:38;;;;;;;17.10;14.05;;;7.40;93.90;;;;;;5036207;28;20042;-84
2022/03/01 10:56:08;;;;;;;18.90;14.43;;;7.40;93.10;;;;;;5028683;28;20120;-84
2022/03/01 10:58:36;;;;;;;18.17;14.75;;;7.40;93.50;;;;;;5018586;28;20546;-84
2022/03/01 11:01:03;;;;;;;16.80;14.43;;;7.40;93.90;;;;;;5052570;28;20048;-85
2022/03/01 11:03:30;;;;;;;17.65;14.60;;;7.50;93.90;;;;;;5019293;28;20064;-84
2022/03/01 11:05:56;;;;;;;18.70;13.98;;;7.50;93.30;;;;;;5051588;28;20057;-83
2022/03/01 11:08:24;;;;;;;19.98;14.88;;;7.50;93.00;;;;;;5035046;28;20057;-83
2022/03/01 11:10:51;;;;;;;17.20;14.43;;;7.50;92.80;;;;;;5051336;28;20120;-83
2022/03/01 11:13:19;;;;;;;17.50;14.40;;;7.50;92.70;;;;;;5051663;28;20183;-83
2022/03/01 11:15:52;;;;;;;17.95;14.80;;;7.60;92.80;;;;;;5050926;28;20061;-83
2022/03/01 11:18:26;;;;;;;18.48;14.85;;;7.60;92.00;;;;;;5051380;28;20478;-83
2022/03/01 11:20:51;;;;;;;19.48;15.15;;;7.70;92.30;;;;;;5051527;28;20067;-83
2022/03/01 11:23:23;;;;;;;17.02;13.93;;;7.70;92.70;;;;;;5052929;28;20044;-84
2022/03/01 11:25:49;;;;;;;18.40;15.25;;;7.70;91.70;;;;;;5055488;28;20049;-83
2022/03/01 11:28:16;;;;;;;18.08;15.25;;;7.70;92.20;;;;;;5056691;28;20478;-83
2022/03/01 11:30:45;;;;;;;16.45;14.48;;;7.80;91.80;;;;;;5054765;28;20485;-83
2022/03/01 11:33:11;;;;;;;21.85;17.00;;;7.80;91.40;;;;;;5056442;28;20552;-83
2022/03/01 11:35:38;;;;;;;18.88;15.25;;;7.70;91.50;;;;;;5055347;28;20049;-83
2022/03/01 11:38:17;;;;;;;19.60;15.65;;;7.70;91.40;;;;;;5055084;28;20508;-83
2022/03/01 11:40:47;;;;;;;19.40;15.65;;;7.80;91.40;;;;;;5056371;28;20478;-84
2022/03/01 11:43:13;;;;;;;19.77;16.42;;;7.60;92.30;;;;;;5039229;28;20132;-83
2022/03/01 11:45:43;;;;;;;17.77;15.40;;;7.70;92.30;;;;;;5055361;28;20071;-85
2022/03/01 11:48:14;;;;;;;17.77;15.35;;;7.70;92.90;;;;;;5062926;28;20059;-83
2022/03/01 11:50:45;;;;;;;18.02;14.77;;;7.70;92.20;;;;;;5046702;28;20029;-83
2022/03/01 11:53:11;;;;;;;19.75;15.52;;;7.60;92.20;;;;;;5077678;28;20103;-83
2022/03/01 11:55:44;;;;;;;20.67;15.77;;;7.60;92.00;;;;;;5061008;28;20048;-83
2022/03/01 11:58:10;;;;;;;18.38;15.90;;;7.60;91.70;;;;;;5080163;28;20025;-84
2022/03/01 12:00:39;;;;;;;18.30;15.85;;;7.70;91.90;;;;;;5063450;28;20029;-83
2022/03/01 12:03:05;;;;;;;19.13;15.82;;;7.60;91.90;;;;;;5053957;28;20055;-81
2022/03/01 12:05:31;;;;;;;18.73;15.60;;;7.50;91.20;;;;;;5038364;28;20057;-83
2022/03/01 12:07:57;;;;;;;20.92;15.40;;;7.60;91.50;;;;;;5021579;28;20158;-83
2022/03/01 12:10:25;;;;;;;19.13;16.83;;;7.50;91.50;;;;;;5054833;28;20102;-83
2022/03/01 12:12:55;;;;;;;17.00;15.20;;;7.60;92.60;;;;;;5037719;28;20143;-83
2022/03/01 12:15:28;;;;;;;18.67;15.75;;;7.60;92.90;;;;;;5054728;28;20053;-83
2022/03/01 12:17:54;;;;;;;18.88;15.57;;;7.60;92.80;;;;;;5038018;28;20400;-83
2022/03/01 12:20:21;;;;;;;18.98;15.85;;;7.60;92.50;;;;;;5038045;28;20048;-81
2022/03/01 12:22:58;;;;;;;17.85;15.25;;;7.60;92.20;;;;;;5054541;28;20048;-82
2022/03/01 12:25:31;;;;;;;19.80;16.65;;;7.70;92.50;;;;;;5054697;28;20446;-81
2022/03/01 12:27:56;;;;;;;18.92;15.43;;;7.70;93.30;;;;;;5054342;28;20045;-82
2022/03/01 12:30:23;;;;;;;20.17;15.63;;;7.70;92.90;;;;;;5055506;28;20047;-82
2022/03/01 12:32:56;;;;;;;20.60;15.80;;;7.80;92.90;;;;;;5054170;28;20105;-82
2022/03/01 12:35:22;;;;;;;21.50;15.83;;;7.90;92.60;;;;;;5054727;28;20136;-82